sensor_id;sensor_type;location;lat;lon;timestamp;P1;durP1;ratioP1;P2;durP2;ratioP2
21420;SDS011;10871;50.144;8.428;2023-06-10T00:00:01;10.30;;;8.02;;
21420;SDS011;10871;50.144;8.428;2023-06-10T00:02:37;10.38;;;7.68;;
21420;SDS011;10871;50.144;8.428;2023-06-10T00:05:04;10.68;;;8.07;;
21420;SDS011;10871;50.144;8.428;2023-06-10T00:07:30;10.93;;;8.23;;
21420;SDS011;10871;50.144;8.428;2023-06-10T00:09:56;10.48;;;8.52;;
21420;SDS011;10871;50.144;8.428;2023-06-10T00:12:23;9.48;;;7.50;;
21420;SDS011;10871;50.144;8.428;2023-06-10T00:14:49;10.05;;;8.38;;
21420;SDS011;10871;50.144;8.428;2023-06-10T00:17:17;10.82;;;8.00;;
21420;SDS011;10871;50.144;8.428;2023-06-10T00:19:44;9.20;;;7.72;;
21420;SDS011;10871;50.144;8.428;2023-06-10T00:22:13;9.40;;;7.43;;
21420;SDS011;10871;50.144;8.428;2023-06-10T00:24:40;10.88;;;7.60;;
21420;SDS011;10871;50.144;8.428;2023-06-10T00:27:08;10.90;;;8.15;;
21420;SDS011;10871;50.144;8.428;2023-06-10T00:29:34;9.95;;;8.15;;
21420;SDS011;10871;50.144;8.428;2023-06-10T00:32:00;9.00;;;7.53;;
21420;SDS011;10871;50.144;8.428;2023-06-10T00:34:27;8.73;;;7.72;;
21420;SDS011;10871;50.144;8.428;2023-06-10T00:36:54;9.80;;;7.30;;
21420;SDS011;10871;50.144;8.428;2023-06-10T00:39:21;13.15;;;7.78;;
21420;SDS011;10871;50.144;8.428;2023-06-10T00:41:48;8.23;;;7.03;;
21420;SDS011;10871;50.144;8.428;2023-06-10T00:44:15;10.02;;;7.43;;
21420;SDS011;10871;50.144;8.428;2023-06-10T00:46:42;9.13;;;7.20;;
21420;SDS011;10871;50.144;8.428;2023-06-10T00:49:08;11.10;;;7.75;;
21420;SDS011;10871;50.144;8.428;2023-06-10T00:51:36;9.27;;;7.65;;
21420;SDS011;10871;50.144;8.428;2023-06-10T00:54:02;9.93;;;7.68;;
21420;SDS011;10871;50.144;8.428;2023-06-10T00:56:29;8.52;;;7.47;;
21420;SDS011;10871;50.144;8.428;2023-06-10T00:58:56;8.38;;;7.22;;
21420;SDS011;10871;50.144;8.428;2023-06-10T01:01:22;8.73;;;7.72;;
21420;SDS011;10871;50.144;8.428;2023-06-10T01:03:50;9.15;;;7.25;;
21420;SDS011;10871;50.144;8.428;2023-06-10T01:08:56;8.27;;;7.25;;
21420;SDS011;10871;50.144;8.428;2023-06-10T01:11:29;8.50;;;7.10;;
21420;SDS011;10871;50.144;8.428;2023-06-10T01:13:59;8.10;;;7.10;;
21420;SDS011;10871;50.144;8.428;2023-06-10T01:16:25;9.95;;;7.07;;
21420;SDS011;10871;50.144;8.428;2023-06-10T01:18:52;10.90;;;6.65;;
21420;SDS011;10871;50.144;8.428;2023-06-10T01:21:21;14.20;;;6.47;;
21420;SDS011;10871;50.144;8.428;2023-06-10T01:23:51;7.65;;;6.22;;
21420;SDS011;10871;50.144;8.428;2023-06-10T01:26:18;7.57;;;6.20;;
21420;SDS011;10871;50.144;8.428;2023-06-10T01:28:51;7.90;;;6.30;;
21420;SDS011;10871;50.144;8.428;2023-06-10T01:31:27;8.52;;;6.43;;
21420;SDS011;10871;50.144;8.428;2023-06-10T01:34:00;9.40;;;6.57;;
21420;SDS011;10871;50.144;8.428;2023-06-10T01:36:28;9.93;;;7.18;;
21420;SDS011;10871;50.144;8.428;2023-06-10T01:38:55;10.98;;;6.72;;
21420;SDS011;10871;50.144;8.428;2023-06-10T01:41:22;7.43;;;6.72;;
21420;SDS011;10871;50.144;8.428;2023-06-10T01:43:49;7.32;;;6.15;;
21420;SDS011;10871;50.144;8.428;2023-06-10T01:46:15;8.50;;;6.60;;
21420;SDS011;10871;50.144;8.428;2023-06-10T01:48:46;8.98;;;6.20;;
21420;SDS011;10871;50.144;8.428;2023-06-10T01:51:14;9.13;;;6.70;;
21420;SDS011;10871;50.144;8.428;2023-06-10T01:53:41;8.32;;;7.20;;
21420;SDS011;10871;50.144;8.428;2023-06-10T01:56:07;8.93;;;6.38;;
21420;SDS011;10871;50.144;8.428;2023-06-10T01:58:33;8.82;;;6.18;;
21420;SDS011;10871;50.144;8.428;2023-06-10T02:01:00;6.85;;;6.05;;
21420;SDS011;10871;50.144;8.428;2023-06-10T02:03:26;7.65;;;6.60;;
21420;SDS011;10871;50.144;8.428;2023-06-10T02:05:53;10.73;;;9.65;;
21420;SDS011;10871;50.144;8.428;2023-06-10T02:08:19;6.95;;;6.00;;
21420;SDS011;10871;50.144;8.428;2023-06-10T02:10:46;8.02;;;6.65;;
21420;SDS011;10871;50.144;8.428;2023-06-10T02:13:12;9.38;;;6.20;;
21420;SDS011;10871;50.144;8.428;2023-06-10T02:15:38;7.35;;;6.32;;
21420;SDS011;10871;50.144;8.428;2023-06-10T02:18:05;9.25;;;6.35;;
21420;SDS011;10871;50.144;8.428;2023-06-10T02:20:32;7.85;;;6.30;;
21420;SDS011;10871;50.144;8.428;2023-06-10T02:22:58;8.35;;;6.30;;
21420;SDS011;10871;50.144;8.428;2023-06-10T02:25:25;9.80;;;5.75;;
21420;SDS011;10871;50.144;8.428;2023-06-10T02:27:51;8.20;;;6.10;;
21420;SDS011;10871;50.144;8.428;2023-06-10T02:30:17;6.88;;;6.18;;
21420;SDS011;10871;50.144;8.428;2023-06-10T02:32:45;8.02;;;6.10;;
21420;SDS011;10871;50.144;8.428;2023-06-10T02:35:16;9.25;;;6.25;;
21420;SDS011;10871;50.144;8.428;2023-06-10T02:37:43;9.02;;;6.00;;
21420;SDS011;10871;50.144;8.428;2023-06-10T02:40:11;9.00;;;6.40;;
21420;SDS011;10871;50.144;8.428;2023-06-10T02:42:38;9.68;;;6.25;;
21420;SDS011;10871;50.144;8.428;2023-06-10T02:45:05;7.03;;;6.18;;
21420;SDS011;10871;50.144;8.428;2023-06-10T02:47:38;9.70;;;6.07;;
21420;SDS011;10871;50.144;8.428;2023-06-10T02:50:06;8.30;;;6.30;;
21420;SDS011;10871;50.144;8.428;2023-06-10T02:52:38;6.30;;;5.70;;
21420;SDS011;10871;50.144;8.428;2023-06-10T02:55:06;7.22;;;6.03;;
21420;SDS011;10871;50.144;8.428;2023-06-10T02:57:33;6.82;;;5.90;;
21420;SDS011;10871;50.144;8.428;2023-06-10T03:00:02;8.20;;;6.28;;
21420;SDS011;10871;50.144;8.428;2023-06-10T03:02:31;10.57;;;7.03;;
21420;SDS011;10871;50.144;8.428;2023-06-10T03:04:58;8.43;;;6.28;;
21420;SDS011;10871;50.144;8.428;2023-06-10T03:07:24;9.25;;;6.32;;
21420;SDS011;10871;50.144;8.428;2023-06-10T03:09:53;7.18;;;5.88;;
21420;SDS011;10871;50.144;8.428;2023-06-10T03:12:19;6.80;;;6.13;;
21420;SDS011;10871;50.144;8.428;2023-06-10T03:14:47;8.75;;;6.13;;
21420;SDS011;10871;50.144;8.428;2023-06-10T03:17:15;6.95;;;5.95;;
21420;SDS011;10871;50.144;8.428;2023-06-10T03:19:43;6.88;;;6.05;;
21420;SDS011;10871;50.144;8.428;2023-06-10T03:22:10;7.55;;;5.82;;
21420;SDS011;10871;50.144;8.428;2023-06-10T03:24:42;8.00;;;6.50;;
21420;SDS011;10871;50.144;8.428;2023-06-10T03:27:10;8.18;;;6.32;;
21420;SDS011;10871;50.144;8.428;2023-06-10T03:29:39;7.72;;;6.35;;
21420;SDS011;10871;50.144;8.428;2023-06-10T03:32:06;10.48;;;6.38;;
21420;SDS011;10871;50.144;8.428;2023-06-10T03:34:34;6.97;;;6.10;;
21420;SDS011;10871;50.144;8.428;2023-06-10T03:37:01;10.73;;;6.53;;
21420;SDS011;10871;50.144;8.428;2023-06-10T03:39:29;7.32;;;6.15;;
21420;SDS011;10871;50.144;8.428;2023-06-10T03:41:57;7.40;;;5.80;;
21420;SDS011;10871;50.144;8.428;2023-06-10T03:44:25;6.88;;;5.97;;
21420;SDS011;10871;50.144;8.428;2023-06-10T03:46:55;8.93;;;5.90;;
21420;SDS011;10871;50.144;8.428;2023-06-10T03:49:23;10.48;;;6.18;;
21420;SDS011;10871;50.144;8.428;2023-06-10T03:51:53;11.77;;;6.40;;
21420;SDS011;10871;50.144;8.428;2023-06-10T03:54:20;6.85;;;6.15;;
21420;SDS011;10871;50.144;8.428;2023-06-10T03:56:46;7.50;;;6.20;;
21420;SDS011;10871;50.144;8.428;2023-06-10T03:59:14;8.02;;;6.15;;
21420;SDS011;10871;50.144;8.428;2023-06-10T04:01:40;8.68;;;5.95;;
21420;SDS011;10871;50.144;8.428;2023-06-10T04:04:07;7.18;;;6.20;;
21420;SDS011;10871;50.144;8.428;2023-06-10T04:06:34;8.15;;;6.30;;
21420;SDS011;10871;50.144;8.428;2023-06-10T04:09:00;8.02;;;6.05;;
21420;SDS011;10871;50.144;8.428;2023-06-10T04:11:27;7.15;;;6.45;;
21420;SDS011;10871;50.144;8.428;2023-06-10T04:13:56;7.30;;;6.50;;
21420;SDS011;10871;50.144;8.428;2023-06-10T04:16:23;8.05;;;6.03;;
21420;SDS011;10871;50.144;8.428;2023-06-10T04:18:50;9.25;;;6.18;;
21420;SDS011;10871;50.144;8.428;2023-06-10T04:21:17;8.30;;;6.47;;
21420;SDS011;10871;50.144;8.428;2023-06-10T04:23:47;7.53;;;6.28;;
21420;SDS011;10871;50.144;8.428;2023-06-10T04:26:14;9.23;;;6.95;;
21420;SDS011;10871;50.144;8.428;2023-06-10T04:28:42;7.30;;;6.60;;
21420;SDS011;10871;50.144;8.428;2023-06-10T04:31:09;8.95;;;6.32;;
21420;SDS011;10871;50.144;8.428;2023-06-10T04:33:37;7.80;;;6.63;;
21420;SDS011;10871;50.144;8.428;2023-06-10T04:36:03;6.82;;;5.93;;
21420;SDS011;10871;50.144;8.428;2023-06-10T04:38:30;8.02;;;6.18;;
21420;SDS011;10871;50.144;8.428;2023-06-10T04:40:58;9.02;;;6.13;;
21420;SDS011;10871;50.144;8.428;2023-06-10T04:43:28;8.57;;;6.32;;
21420;SDS011;10871;50.144;8.428;2023-06-10T04:45:55;8.18;;;6.70;;
21420;SDS011;10871;50.144;8.428;2023-06-10T04:48:21;8.85;;;5.88;;
21420;SDS011;10871;50.144;8.428;2023-06-10T04:50:50;7.25;;;6.13;;
21420;SDS011;10871;50.144;8.428;2023-06-10T04:53:17;8.55;;;6.50;;
21420;SDS011;10871;50.144;8.428;2023-06-10T04:55:45;8.13;;;6.50;;
21420;SDS011;10871;50.144;8.428;2023-06-10T04:58:12;7.90;;;5.97;;
21420;SDS011;10871;50.144;8.428;2023-06-10T05:00:38;9.07;;;6.57;;
21420;SDS011;10871;50.144;8.428;2023-06-10T05:03:04;8.27;;;6.18;;
21420;SDS011;10871;50.144;8.428;2023-06-10T05:05:31;10.90;;;6.68;;
21420;SDS011;10871;50.144;8.428;2023-06-10T05:07:57;10.85;;;6.97;;
21420;SDS011;10871;50.144;8.428;2023-06-10T05:10:24;10.20;;;6.45;;
21420;SDS011;10871;50.144;8.428;2023-06-10T05:12:50;8.73;;;6.55;;
21420;SDS011;10871;50.144;8.428;2023-06-10T05:15:16;7.30;;;6.35;;
21420;SDS011;10871;50.144;8.428;2023-06-10T05:17:43;7.10;;;6.38;;
21420;SDS011;10871;50.144;8.428;2023-06-10T05:20:09;11.32;;;7.03;;
21420;SDS011;10871;50.144;8.428;2023-06-10T05:22:36;7.10;;;6.35;;
21420;SDS011;10871;50.144;8.428;2023-06-10T05:25:02;11.93;;;6.60;;
21420;SDS011;10871;50.144;8.428;2023-06-10T05:27:29;10.38;;;6.53;;
21420;SDS011;10871;50.144;8.428;2023-06-10T05:29:55;13.20;;;7.00;;
21420;SDS011;10871;50.144;8.428;2023-06-10T05:32:22;8.65;;;6.93;;
21420;SDS011;10871;50.144;8.428;2023-06-10T05:34:49;8.23;;;6.70;;
21420;SDS011;10871;50.144;8.428;2023-06-10T05:37:15;9.70;;;6.75;;
21420;SDS011;10871;50.144;8.428;2023-06-10T05:39:41;9.45;;;7.00;;
21420;SDS011;10871;50.144;8.428;2023-06-10T05:42:08;8.93;;;6.32;;
21420;SDS011;10871;50.144;8.428;2023-06-10T05:44:34;7.70;;;6.68;;
21420;SDS011;10871;50.144;8.428;2023-06-10T05:47:01;8.05;;;6.47;;
21420;SDS011;10871;50.144;8.428;2023-06-10T05:49:27;8.55;;;6.85;;
21420;SDS011;10871;50.144;8.428;2023-06-10T05:51:53;9.77;;;6.90;;
21420;SDS011;10871;50.144;8.428;2023-06-10T05:54:22;7.55;;;6.50;;
21420;SDS011;10871;50.144;8.428;2023-06-10T05:56:48;8.98;;;6.90;;
21420;SDS011;10871;50.144;8.428;2023-06-10T05:59:14;8.80;;;7.18;;
21420;SDS011;10871;50.144;8.428;2023-06-10T06:01:41;10.93;;;7.10;;
21420;SDS011;10871;50.144;8.428;2023-06-10T06:04:07;9.32;;;6.72;;
21420;SDS011;10871;50.144;8.428;2023-06-10T06:06:34;12.05;;;7.03;;
21420;SDS011;10871;50.144;8.428;2023-06-10T06:09:01;8.93;;;6.32;;
21420;SDS011;10871;50.144;8.428;2023-06-10T06:11:27;9.00;;;6.75;;
21420;SDS011;10871;50.144;8.428;2023-06-10T06:13:54;8.75;;;6.85;;
21420;SDS011;10871;50.144;8.428;2023-06-10T06:16:20;11.43;;;6.95;;
21420;SDS011;10871;50.144;8.428;2023-06-10T06:18:47;10.50;;;6.78;;
21420;SDS011;10871;50.144;8.428;2023-06-10T06:21:13;10.90;;;7.00;;
21420;SDS011;10871;50.144;8.428;2023-06-10T06:23:40;9.73;;;6.95;;
21420;SDS011;10871;50.144;8.428;2023-06-10T06:26:06;8.18;;;7.38;;
21420;SDS011;10871;50.144;8.428;2023-06-10T06:28:34;10.38;;;7.35;;
21420;SDS011;10871;50.144;8.428;2023-06-10T06:31:01;7.80;;;7.00;;
21420;SDS011;10871;50.144;8.428;2023-06-10T06:33:27;8.38;;;7.20;;
21420;SDS011;10871;50.144;8.428;2023-06-10T06:35:54;8.10;;;7.03;;
21420;SDS011;10871;50.144;8.428;2023-06-10T06:38:20;8.48;;;7.10;;
21420;SDS011;10871;50.144;8.428;2023-06-10T06:40:47;8.52;;;7.00;;
21420;SDS011;10871;50.144;8.428;2023-06-10T06:43:13;7.90;;;6.95;;
21420;SDS011;10871;50.144;8.428;2023-06-10T06:45:55;8.80;;;7.90;;
21420;SDS011;10871;50.144;8.428;2023-06-10T06:48:21;8.00;;;7.22;;
21420;SDS011;10871;50.144;8.428;2023-06-10T06:50:48;7.88;;;7.07;;
21420;SDS011;10871;50.144;8.428;2023-06-10T06:53:14;8.35;;;7.55;;
21420;SDS011;10871;50.144;8.428;2023-06-10T06:55:40;7.57;;;6.72;;
21420;SDS011;10871;50.144;8.428;2023-06-10T06:58:07;10.15;;;7.07;;
21420;SDS011;10871;50.144;8.428;2023-06-10T07:00:33;8.25;;;7.43;;
21420;SDS011;10871;50.144;8.428;2023-06-10T07:02:59;10.00;;;7.18;;
21420;SDS011;10871;50.144;8.428;2023-06-10T07:05:26;7.68;;;6.97;;
21420;SDS011;10871;50.144;8.428;2023-06-10T07:07:54;7.93;;;7.13;;
21420;SDS011;10871;50.144;8.428;2023-06-10T07:10:22;9.60;;;7.40;;
21420;SDS011;10871;50.144;8.428;2023-06-10T07:12:49;9.50;;;7.55;;
21420;SDS011;10871;50.144;8.428;2023-06-10T07:15:16;9.13;;;6.95;;
21420;SDS011;10871;50.144;8.428;2023-06-10T07:17:42;7.63;;;6.93;;
21420;SDS011;10871;50.144;8.428;2023-06-10T07:20:10;10.07;;;7.07;;
21420;SDS011;10871;50.144;8.428;2023-06-10T07:22:36;7.43;;;6.72;;
21420;SDS011;10871;50.144;8.428;2023-06-10T07:25:05;7.85;;;7.10;;
21420;SDS011;10871;50.144;8.428;2023-06-10T07:27:32;8.02;;;7.03;;
21420;SDS011;10871;50.144;8.428;2023-06-10T07:29:58;10.23;;;7.05;;
21420;SDS011;10871;50.144;8.428;2023-06-10T07:32:27;9.38;;;7.40;;
21420;SDS011;10871;50.144;8.428;2023-06-10T07:34:53;9.20;;;7.38;;
21420;SDS011;10871;50.144;8.428;2023-06-10T07:37:20;8.98;;;7.15;;
21420;SDS011;10871;50.144;8.428;2023-06-10T07:39:46;10.00;;;7.28;;
21420;SDS011;10871;50.144;8.428;2023-06-10T07:42:12;8.80;;;7.05;;
21420;SDS011;10871;50.144;8.428;2023-06-10T07:44:39;8.68;;;7.65;;
21420;SDS011;10871;50.144;8.428;2023-06-10T07:47:05;7.70;;;6.90;;
21420;SDS011;10871;50.144;8.428;2023-06-10T07:49:32;8.13;;;7.32;;
21420;SDS011;10871;50.144;8.428;2023-06-10T07:51:58;8.48;;;7.45;;
21420;SDS011;10871;50.144;8.428;2023-06-10T07:54:25;8.50;;;7.30;;
21420;SDS011;10871;50.144;8.428;2023-06-10T07:56:55;8.48;;;7.45;;
21420;SDS011;10871;50.144;8.428;2023-06-10T07:59:21;9.88;;;7.45;;
21420;SDS011;10871;50.144;8.428;2023-06-10T08:01:48;7.63;;;6.82;;
21420;SDS011;10871;50.144;8.428;2023-06-10T08:04:14;8.23;;;7.45;;
21420;SDS011;10871;50.144;8.428;2023-06-10T08:06:40;8.30;;;6.90;;
21420;SDS011;10871;50.144;8.428;2023-06-10T08:09:07;11.07;;;10.15;;
21420;SDS011;10871;50.144;8.428;2023-06-10T08:11:33;12.40;;;10.70;;
21420;SDS011;10871;50.144;8.428;2023-06-10T08:14:00;7.55;;;6.75;;
21420;SDS011;10871;50.144;8.428;2023-06-10T08:16:26;7.32;;;6.55;;
21420;SDS011;10871;50.144;8.428;2023-06-10T08:18:52;8.07;;;6.70;;
21420;SDS011;10871;50.144;8.428;2023-06-10T08:21:21;8.35;;;6.53;;
21420;SDS011;10871;50.144;8.428;2023-06-10T08:23:47;8.82;;;6.68;;
21420;SDS011;10871;50.144;8.428;2023-06-10T08:26:14;7.72;;;6.80;;
21420;SDS011;10871;50.144;8.428;2023-06-10T08:28:40;9.85;;;6.78;;
21420;SDS011;10871;50.144;8.428;2023-06-10T08:31:07;11.25;;;6.95;;
21420;SDS011;10871;50.144;8.428;2023-06-10T08:33:33;7.90;;;6.85;;
21420;SDS011;10871;50.144;8.428;2023-06-10T08:35:59;7.10;;;6.47;;
21420;SDS011;10871;50.144;8.428;2023-06-10T08:38:26;8.32;;;6.65;;
21420;SDS011;10871;50.144;8.428;2023-06-10T08:40:52;9.07;;;6.80;;
21420;SDS011;10871;50.144;8.428;2023-06-10T08:43:22;6.78;;;6.15;;
21420;SDS011;10871;50.144;8.428;2023-06-10T08:45:51;8.00;;;7.00;;
21420;SDS011;10871;50.144;8.428;2023-06-10T08:48:19;7.93;;;6.72;;
21420;SDS011;10871;50.144;8.428;2023-06-10T08:50:46;8.73;;;6.40;;
21420;SDS011;10871;50.144;8.428;2023-06-10T08:53:13;6.75;;;6.10;;
21420;SDS011;10871;50.144;8.428;2023-06-10T08:55:44;7.28;;;6.43;;
21420;SDS011;10871;50.144;8.428;2023-06-10T08:58:12;7.43;;;5.88;;
21420;SDS011;10871;50.144;8.428;2023-06-10T09:00:39;6.50;;;5.90;;
21420;SDS011;10871;50.144;8.428;2023-06-10T09:03:05;6.78;;;6.18;;
21420;SDS011;10871;50.144;8.428;2023-06-10T09:05:35;10.50;;;6.57;;
21420;SDS011;10871;50.144;8.428;2023-06-10T09:08:02;10.70;;;6.50;;
21420;SDS011;10871;50.144;8.428;2023-06-10T09:10:29;8.40;;;6.25;;
21420;SDS011;10871;50.144;8.428;2023-06-10T09:12:55;6.65;;;5.95;;
21420;SDS011;10871;50.144;8.428;2023-06-10T09:15:23;10.73;;;6.32;;
21420;SDS011;10871;50.144;8.428;2023-06-10T09:17:49;7.18;;;6.38;;
21420;SDS011;10871;50.144;8.428;2023-06-10T09:20:16;7.55;;;6.38;;
21420;SDS011;10871;50.144;8.428;2023-06-10T09:22:43;6.78;;;6.20;;
21420;SDS011;10871;50.144;8.428;2023-06-10T09:25:10;8.57;;;6.60;;
21420;SDS011;10871;50.144;8.428;2023-06-10T09:27:46;9.15;;;6.53;;
21420;SDS011;10871;50.144;8.428;2023-06-10T09:32:55;7.88;;;6.75;;
21420;SDS011;10871;50.144;8.428;2023-06-10T09:35:23;8.25;;;6.05;;
21420;SDS011;10871;50.144;8.428;2023-06-10T09:37:51;8.30;;;6.05;;
21420;SDS011;10871;50.144;8.428;2023-06-10T09:40:17;7.20;;;6.15;;
21420;SDS011;10871;50.144;8.428;2023-06-10T09:42:44;7.90;;;6.63;;
21420;SDS011;10871;50.144;8.428;2023-06-10T09:45:10;7.53;;;6.78;;
21420;SDS011;10871;50.144;8.428;2023-06-10T09:47:37;7.20;;;6.50;;
21420;SDS011;10871;50.144;8.428;2023-06-10T09:50:03;7.68;;;6.82;;
21420;SDS011;10871;50.144;8.428;2023-06-10T09:52:30;8.65;;;6.43;;
21420;SDS011;10871;50.144;8.428;2023-06-10T09:55:01;7.50;;;6.13;;
21420;SDS011;10871;50.144;8.428;2023-06-10T09:57:31;6.88;;;5.90;;
21420;SDS011;10871;50.144;8.428;2023-06-10T09:59:59;7.93;;;5.93;;
21420;SDS011;10871;50.144;8.428;2023-06-10T10:02:46;8.00;;;6.10;;
21420;SDS011;10871;50.144;8.428;2023-06-10T10:05:14;7.57;;;6.18;;
21420;SDS011;10871;50.144;8.428;2023-06-10T10:07:42;6.85;;;6.13;;
21420;SDS011;10871;50.144;8.428;2023-06-10T10:10:09;7.32;;;6.22;;
21420;SDS011;10871;50.144;8.428;2023-06-10T10:12:36;7.35;;;6.18;;
21420;SDS011;10871;50.144;8.428;2023-06-10T10:15:03;8.30;;;6.35;;
21420;SDS011;10871;50.144;8.428;2023-06-10T10:17:31;7.57;;;5.78;;
21420;SDS011;10871;50.144;8.428;2023-06-10T10:20:00;7.20;;;6.10;;
21420;SDS011;10871;50.144;8.428;2023-06-10T10:22:37;7.22;;;6.00;;
21420;SDS011;10871;50.144;8.428;2023-06-10T10:25:11;9.27;;;6.35;;
21420;SDS011;10871;50.144;8.428;2023-06-10T10:27:40;6.18;;;5.57;;
21420;SDS011;10871;50.144;8.428;2023-06-10T10:30:10;6.30;;;5.70;;
21420;SDS011;10871;50.144;8.428;2023-06-10T10:32:38;6.40;;;5.80;;
21420;SDS011;10871;50.144;8.428;2023-06-10T10:35:09;6.65;;;5.70;;
21420;SDS011;10871;50.144;8.428;2023-06-10T10:37:38;7.30;;;5.78;;
21420;SDS011;10871;50.144;8.428;2023-06-10T10:40:05;8.38;;;6.43;;
21420;SDS011;10871;50.144;8.428;2023-06-10T10:42:32;6.38;;;5.78;;
21420;SDS011;10871;50.144;8.428;2023-06-10T10:44:59;8.40;;;6.47;;
21420;SDS011;10871;50.144;8.428;2023-06-10T10:47:26;8.48;;;6.10;;
21420;SDS011;10871;50.144;8.428;2023-06-10T10:49:53;8.15;;;5.90;;
21420;SDS011;10871;50.144;8.428;2023-06-10T10:52:19;9.52;;;5.80;;
21420;SDS011;10871;50.144;8.428;2023-06-10T10:54:46;9.15;;;6.72;;
21420;SDS011;10871;50.144;8.428;2023-06-10T11:05:05;8.23;;;5.70;;
21420;SDS011;10871;50.144;8.428;2023-06-10T11:07:32;5.72;;;5.20;;
21420;SDS011;10871;50.144;8.428;2023-06-10T11:10:04;6.60;;;5.07;;
21420;SDS011;10871;50.144;8.428;2023-06-10T11:15:07;7.47;;;5.40;;
21420;SDS011;10871;50.144;8.428;2023-06-10T11:17:34;6.00;;;5.43;;
21420;SDS011;10871;50.144;8.428;2023-06-10T11:20:00;5.90;;;5.40;;
21420;SDS011;10871;50.144;8.428;2023-06-10T11:22:27;6.13;;;5.03;;
21420;SDS011;10871;50.144;8.428;2023-06-10T11:24:53;8.00;;;4.95;;
21420;SDS011;10871;50.144;8.428;2023-06-10T11:27:20;5.68;;;5.18;;
21420;SDS011;10871;50.144;8.428;2023-06-10T11:32:34;6.32;;;5.20;;
21420;SDS011;10871;50.144;8.428;2023-06-10T11:35:04;7.00;;;4.97;;
21420;SDS011;10871;50.144;8.428;2023-06-10T11:37:31;6.63;;;5.10;;
21420;SDS011;10871;50.144;8.428;2023-06-10T11:39:57;6.20;;;4.80;;
21420;SDS011;10871;50.144;8.428;2023-06-10T11:42:24;5.18;;;4.70;;
21420;SDS011;10871;50.144;8.428;2023-06-10T11:44:51;8.40;;;5.05;;
21420;SDS011;10871;50.144;8.428;2023-06-10T11:47:18;6.38;;;5.15;;
21420;SDS011;10871;50.144;8.428;2023-06-10T11:49:45;8.77;;;4.75;;
21420;SDS011;10871;50.144;8.428;2023-06-10T11:52:17;5.57;;;4.53;;
21420;SDS011;10871;50.144;8.428;2023-06-10T11:54:46;5.45;;;4.55;;
21420;SDS011;10871;50.144;8.428;2023-06-10T11:57:19;4.88;;;4.40;;
21420;SDS011;10871;50.144;8.428;2023-06-10T11:59:45;5.47;;;4.78;;
21420;SDS011;10871;50.144;8.428;2023-06-10T12:02:15;6.93;;;4.88;;
21420;SDS011;10871;50.144;8.428;2023-06-10T12:04:42;5.93;;;4.70;;
21420;SDS011;10871;50.144;8.428;2023-06-10T12:07:08;5.32;;;4.40;;
21420;SDS011;10871;50.144;8.428;2023-06-10T12:09:35;4.50;;;4.10;;
21420;SDS011;10871;50.144;8.428;2023-06-10T12:12:02;5.35;;;4.32;;
21420;SDS011;10871;50.144;8.428;2023-06-10T12:17:15;7.63;;;4.50;;
21420;SDS011;10871;50.144;8.428;2023-06-10T12:19:41;5.65;;;4.75;;
21420;SDS011;10871;50.144;8.428;2023-06-10T12:22:08;5.22;;;4.70;;
21420;SDS011;10871;50.144;8.428;2023-06-10T12:24:43;6.05;;;5.07;;
21420;SDS011;10871;50.144;8.428;2023-06-10T12:27:11;6.90;;;5.20;;
21420;SDS011;10871;50.144;8.428;2023-06-10T12:29:37;6.30;;;5.13;;
21420;SDS011;10871;50.144;8.428;2023-06-10T12:32:04;8.07;;;5.20;;
21420;SDS011;10871;50.144;8.428;2023-06-10T12:34:32;6.13;;;5.45;;
21420;SDS011;10871;50.144;8.428;2023-06-10T12:37:00;7.18;;;5.30;;
21420;SDS011;10871;50.144;8.428;2023-06-10T12:39:27;7.32;;;5.00;;
21420;SDS011;10871;50.144;8.428;2023-06-10T12:41:53;6.10;;;4.80;;
21420;SDS011;10871;50.144;8.428;2023-06-10T12:44:38;8.85;;;5.40;;
21420;SDS011;10871;50.144;8.428;2023-06-10T12:47:08;6.15;;;5.43;;
21420;SDS011;10871;50.144;8.428;2023-06-10T12:49:36;8.15;;;5.32;;
21420;SDS011;10871;50.144;8.428;2023-06-10T12:52:03;5.68;;;5.13;;
21420;SDS011;10871;50.144;8.428;2023-06-10T12:54:29;5.97;;;5.20;;
21420;SDS011;10871;50.144;8.428;2023-06-10T12:56:56;5.90;;;5.35;;
21420;SDS011;10871;50.144;8.428;2023-06-10T12:59:22;8.10;;;5.35;;
21420;SDS011;10871;50.144;8.428;2023-06-10T13:01:53;6.55;;;5.80;;
21420;SDS011;10871;50.144;8.428;2023-06-10T13:04:20;6.00;;;5.40;;
21420;SDS011;10871;50.144;8.428;2023-06-10T13:06:48;7.70;;;5.80;;
21420;SDS011;10871;50.144;8.428;2023-06-10T13:09:15;6.07;;;5.57;;
21420;SDS011;10871;50.144;8.428;2023-06-10T13:11:41;6.95;;;5.45;;
21420;SDS011;10871;50.144;8.428;2023-06-10T13:14:09;6.55;;;5.40;;
21420;SDS011;10871;50.144;8.428;2023-06-10T13:16:36;5.90;;;5.30;;
21420;SDS011;10871;50.144;8.428;2023-06-10T13:19:04;5.60;;;5.00;;
21420;SDS011;10871;50.144;8.428;2023-06-10T13:21:32;7.25;;;5.25;;
21420;SDS011;10871;50.144;8.428;2023-06-10T13:23:58;5.78;;;5.28;;
21420;SDS011;10871;50.144;8.428;2023-06-10T13:26:25;7.28;;;5.22;;
21420;SDS011;10871;50.144;8.428;2023-06-10T13:28:51;6.10;;;5.35;;
21420;SDS011;10871;50.144;8.428;2023-06-10T13:31:18;6.03;;;5.43;;
21420;SDS011;10871;50.144;8.428;2023-06-10T13:33:47;7.03;;;5.70;;
21420;SDS011;10871;50.144;8.428;2023-06-10T13:36:13;8.50;;;5.35;;
21420;SDS011;10871;50.144;8.428;2023-06-10T13:38:40;5.95;;;5.35;;
21420;SDS011;10871;50.144;8.428;2023-06-10T13:41:06;7.20;;;5.80;;
21420;SDS011;10871;50.144;8.428;2023-06-10T13:43:32;8.27;;;5.38;;
21420;SDS011;10871;50.144;8.428;2023-06-10T13:45:59;5.90;;;5.30;;
21420;SDS011;10871;50.144;8.428;2023-06-10T13:48:26;8.20;;;5.80;;
21420;SDS011;10871;50.144;8.428;2023-06-10T13:50:52;6.28;;;5.60;;
21420;SDS011;10871;50.144;8.428;2023-06-10T13:53:19;8.85;;;5.15;;
21420;SDS011;10871;50.144;8.428;2023-06-10T13:55:45;6.35;;;5.68;;
21420;SDS011;10871;50.144;8.428;2023-06-10T13:58:11;8.43;;;5.57;;
21420;SDS011;10871;50.144;8.428;2023-06-10T14:00:38;7.28;;;5.65;;
21420;SDS011;10871;50.144;8.428;2023-06-10T14:03:04;8.30;;;5.78;;
21420;SDS011;10871;50.144;8.428;2023-06-10T14:05:31;6.07;;;5.50;;
21420;SDS011;10871;50.144;8.428;2023-06-10T14:07:58;6.93;;;5.78;;
21420;SDS011;10871;50.144;8.428;2023-06-10T14:10:24;8.77;;;5.88;;
21420;SDS011;10871;50.144;8.428;2023-06-10T14:12:51;8.50;;;6.05;;
21420;SDS011;10871;50.144;8.428;2023-06-10T14:15:17;5.85;;;5.30;;
21420;SDS011;10871;50.144;8.428;2023-06-10T14:17:44;6.22;;;5.60;;
21420;SDS011;10871;50.144;8.428;2023-06-10T14:20:10;6.13;;;5.63;;
21420;SDS011;10871;50.144;8.428;2023-06-10T14:22:37;5.80;;;5.07;;
21420;SDS011;10871;50.144;8.428;2023-06-10T14:25:03;8.48;;;5.68;;
21420;SDS011;10871;50.144;8.428;2023-06-10T14:27:30;8.70;;;5.68;;
21420;SDS011;10871;50.144;8.428;2023-06-10T14:29:56;6.65;;;5.35;;
21420;SDS011;10871;50.144;8.428;2023-06-10T14:32:23;6.07;;;5.15;;
21420;SDS011;10871;50.144;8.428;2023-06-10T14:34:49;5.43;;;4.93;;
21420;SDS011;10871;50.144;8.428;2023-06-10T14:37:16;5.80;;;5.20;;
21420;SDS011;10871;50.144;8.428;2023-06-10T14:39:42;5.20;;;4.70;;
21420;SDS011;10871;50.144;8.428;2023-06-10T14:42:09;5.35;;;4.85;;
21420;SDS011;10871;50.144;8.428;2023-06-10T14:44:36;5.80;;;5.00;;
21420;SDS011;10871;50.144;8.428;2023-06-10T14:47:03;5.07;;;4.57;;
21420;SDS011;10871;50.144;8.428;2023-06-10T14:49:29;5.93;;;4.60;;
21420;SDS011;10871;50.144;8.428;2023-06-10T14:51:55;5.22;;;4.50;;
21420;SDS011;10871;50.144;8.428;2023-06-10T14:54:22;7.43;;;4.63;;
21420;SDS011;10871;50.144;8.428;2023-06-10T14:56:48;6.70;;;4.80;;
21420;SDS011;10871;50.144;8.428;2023-06-10T14:59:14;6.82;;;5.22;;
21420;SDS011;10871;50.144;8.428;2023-06-10T15:01:41;5.28;;;4.70;;
21420;SDS011;10871;50.144;8.428;2023-06-10T15:04:07;7.55;;;4.60;;
21420;SDS011;10871;50.144;8.428;2023-06-10T15:06:33;7.22;;;4.90;;